Time;durP1;ratioP1;P1;durP2;ratioP2;P2;SDS_P1;SDS_P2;PMS_P1;PMS_P2;Temp;Humidity;BMP_temperature;BMP_pressure;BME280_temperature;BME280_humidity;BME280_pressure;Samples;Min_cycle;Max_cycle;Signal;HPM_P1;HPM_P2
2022/04/02 00:01:40;;;;;;;;;;;;;;;1.70;81.04;99500.25;4929641;29;19925;-88
2022/04/02 00:04:06;;;;;;;;;;;;;;;1.34;82.15;99508.63;4928753;29;19919;-86
2022/04/02 00:06:31;;;;;;;;;;;;;;;1.10;83.02;99504.75;4927184;29;19919;-87
2022/04/02 00:08:56;;;;;;;;;;;;;;;1.21;82.24;99500.59;4929773;29;20064;-86
2022/04/02 00:11:21;;;;;;;;;;;;;;;1.32;82.53;99505.34;4927385;29;19966;-88
2022/04/02 00:13:47;;;;;;;;;;;;;;;1.30;83.32;99522.69;4928995;29;20017;-87
2022/04/02 00:16:12;;;;;;;;;;;;;;;1.44;82.30;99507.38;4928356;29;20410;-87
2022/04/02 00:18:38;;;;;;;;;;;;;;;1.42;82.07;99512.13;4928802;29;19965;-86
2022/04/02 00:21:04;;;;;;;;;;;;;;;1.48;81.47;99509.44;4927001;29;19922;-87
2022/04/02 00:23:43;;;;;;;;;;;;;;;1.63;80.73;99505.66;4927660;29;19922;-87
2022/04/02 00:26:10;;;;;;;;;;;;;;;1.46;81.86;99508.81;4929121;29;20337;-87
2022/04/02 00:28:36;;;;;;;;;;;;;;;1.55;80.71;99511.25;4927432;29;19919;-87
2022/04/02 00:31:01;;;;;;;;;;;;;;;1.46;81.79;99519.56;4928613;29;19925;-87
2022/04/02 00:33:27;;;;;;;;;;;;;;;1.50;80.66;99509.22;4929795;29;19923;-87
2022/04/02 00:38:55;;;;;;;;;;;;;;;0.98;82.37;99521.47;4927950;29;19965;-87
2022/04/02 00:41:20;;;;;;;;;;;;;;;1.19;81.45;99527.66;4927821;29;19950;-87
2022/04/02 00:43:56;;;;;;;;;;;;;;;1.32;81.21;99526.00;4929118;29;19918;-87
2022/04/02 00:46:21;;;;;;;;;;;;;;;1.33;80.85;99511.53;4926384;29;19923;-86
2022/04/02 00:48:47;;;;;;;;;;;;;;;1.26;81.81;99525.78;4928769;29;20382;-87
2022/04/02 00:51:15;;;;;;;;;;;;;;;1.32;81.34;99512.56;4922311;29;19919;-88
2022/04/02 00:53:42;;;;;;;;;;;;;;;1.52;80.98;99509.84;4928539;29;19922;-87
2022/04/02 00:56:07;;;;;;;;;;;;;;;1.50;80.10;99522.66;4928555;29;20400;-87
2022/04/02 00:58:32;;;;;;;;;;;;;;;1.22;80.48;99516.50;4929530;29;19949;-87
2022/04/02 01:00:58;;;;;;;;;;;;;;;1.39;80.31;99516.06;4931865;29;20398;-87
2022/04/02 01:03:23;;;;;;;;;;;;;;;1.61;79.76;99526.53;4933285;29;19918;-87
2022/04/02 01:05:49;;;;;;;;;;;;;;;1.66;79.02;99520.53;4932135;29;20393;-86
2022/04/02 01:08:14;;;;;;;;;;;;;;;1.67;79.35;99528.38;4931741;29;20377;-86
2022/04/02 01:10:40;;;;;;;;;;;;;;;1.43;79.24;99521.84;4932080;29;19919;-88
2022/04/02 01:13:06;;;;;;;;;;;;;;;1.15;79.96;99532.63;4931982;29;19918;-86
2022/04/02 01:15:31;;;;;;;;;;;;;;;1.31;81.13;99527.03;4931531;29;19915;-88
2022/04/02 01:17:57;;;;;;;;;;;;;;;1.63;79.73;99532.53;4932084;29;20285;-87
2022/04/02 01:20:22;;;;;;;;;;;;;;;1.35;79.50;99533.63;4931050;29;19926;-87
2022/04/02 01:22:48;;;;;;;;;;;;;;;1.55;79.62;99530.06;4914439;29;19926;-88
2022/04/02 01:25:14;;;;;;;;;;;;;;;1.65;79.12;99526.97;4913664;29;20056;-87
2022/04/02 01:27:39;;;;;;;;;;;;;;;1.65;78.43;99525.09;4914477;29;19925;-87
2022/04/02 01:30:05;;;;;;;;;;;;;;;1.25;79.76;99529.53;4931259;29;19925;-88
2022/04/02 01:32:30;;;;;;;;;;;;;;;1.47;78.92;99529.28;4930785;29;20541;-88
2022/04/02 01:34:56;;;;;;;;;;;;;;;1.79;78.75;99530.44;4932048;29;19922;-87
2022/04/02 01:37:21;;;;;;;;;;;;;;;1.78;78.52;99534.97;4930680;29;19939;-87
2022/04/02 01:39:47;;;;;;;;;;;;;;;1.68;78.58;99529.22;4932419;29;19950;-87
2022/04/02 01:42:13;;;;;;;;;;;;;;;1.81;77.71;99531.84;4930734;29;19928;-87
2022/04/02 01:44:41;;;;;;;;;;;;;;;1.85;77.83;99534.97;4931589;29;19930;-86
2022/04/02 01:47:06;;;;;;;;;;;;;;;1.64;79.04;99534.19;4913642;29;20355;-87
2022/04/02 01:49:31;;;;;;;;;;;;;;;1.84;77.67;99534.13;4931229;29;19918;-87
2022/04/02 01:51:56;;;;;;;;;;;;;;;1.72;77.96;99542.03;4931003;29;20096;-87
2022/04/02 01:54:21;;;;;;;;;;;;;;;1.86;77.06;99545.50;4930962;29;20040;-86
2022/04/02 01:56:48;;;;;;;;;;;;;;;1.68;76.32;99530.06;4931475;29;20159;-87
2022/04/02 01:59:13;;;;;;;;;;;;;;;1.33;77.58;99539.22;4925403;29;19914;-87
2022/04/02 02:01:38;;;;;;;;;;;;;;;1.23;77.46;99539.66;4930627;29;20306;-87
2022/04/02 02:04:03;;;;;;;;;;;;;;;1.17;78.89;99543.16;4930588;29;20373;-87
2022/04/02 02:06:43;;;;;;;;;;;;;;;1.32;77.99;99540.28;4931452;29;19988;-86
2022/04/02 02:09:08;;;;;;;;;;;;;;;1.37;76.82;99547.69;4930686;29;20496;-86
2022/04/02 02:11:34;;;;;;;;;;;;;;;1.30;77.28;99542.34;4929871;29;19923;-87
2022/04/02 02:13:59;;;;;;;;;;;;;;;1.14;77.38;99536.34;4931461;29;19918;-86
2022/04/02 02:16:24;;;;;;;;;;;;;;;1.42;77.09;99545.22;4929744;29;19918;-86
2022/04/02 02:18:50;;;;;;;;;;;;;;;1.39;75.92;99537.56;4931401;29;20005;-87
2022/04/02 02:21:16;;;;;;;;;;;;;;;1.09;76.83;99544.22;4929988;29;19941;-86
2022/04/02 02:23:41;;;;;;;;;;;;;;;1.39;76.61;99537.56;4913565;29;19918;-86
2022/04/02 02:26:06;;;;;;;;;;;;;;;1.37;76.27;99540.44;4930715;29;20330;-88
2022/04/02 02:28:32;;;;;;;;;;;;;;;1.20;76.21;99542.72;4930986;29;19930;-87
2022/04/02 02:30:58;;;;;;;;;;;;;;;1.39;75.41;99538.38;4930065;29;19968;-86
2022/04/02 02:36:07;;;;;;;;;;;;;;;1.32;75.42;99539.44;4911745;29;19926;-86
2022/04/02 02:38:32;;;;;;;;;;;;;;;1.16;77.21;99539.66;4910816;29;19919;-87
2022/04/02 02:40:57;;;;;;;;;;;;;;;1.15;76.41;99540.69;4911110;29;20001;-86
2022/04/02 02:43:23;;;;;;;;;;;;;;;1.04;76.45;99547.50;4911383;29;19922;-85
2022/04/02 02:45:48;;;;;;;;;;;;;;;1.31;75.93;99552.03;4894071;29;19923;-87
2022/04/02 02:48:13;;;;;;;;;;;;;;;1.08;75.76;99547.09;4907806;29;20429;-87
2022/04/02 02:50:39;;;;;;;;;;;;;;;1.12;76.42;99549.16;4908433;29;20022;-87
2022/04/02 02:53:04;;;;;;;;;;;;;;;1.31;76.03;99551.19;4911451;29;19919;-87
2022/04/02 02:55:30;;;;;;;;;;;;;;;1.35;75.31;99547.06;4910408;29;19919;-86
2022/04/02 02:57:55;;;;;;;;;;;;;;;1.22;75.82;99551.41;4910856;29;19915;-86
2022/04/02 03:00:20;;;;;;;;;;;;;;;0.93;74.97;99540.06;4910106;29;19919;-86
2022/04/02 03:02:46;;;;;;;;;;;;;;;0.91;75.70;99552.88;4910019;29;19958;-85
2022/04/02 03:05:12;;;;;;;;;;;;;;;1.32;75.25;99552.88;4909859;29;20014;-87
2022/04/02 03:07:38;;;;;;;;;;;;;;;0.99;75.28;99544.63;4909521;29;20405;-86
2022/04/02 03:10:04;;;;;;;;;;;;;;;0.98;76.77;99555.56;4895908;29;19919;-87
2022/04/02 03:12:29;;;;;;;;;;;;;;;1.27;75.31;99558.84;4932087;29;19958;-87
2022/04/02 03:14:54;;;;;;;;;;;;;;;1.06;74.67;99557.22;4933129;29;19930;-88
2022/04/02 03:17:19;;;;;;;;;;;;;;;1.02;75.82;99556.78;4932066;29;20401;-87
2022/04/02 03:19:45;;;;;;;;;;;;;;;1.01;76.17;99563.22;4932354;29;19922;-86
2022/04/02 03:22:10;;;;;;;;;;;;;;;1.30;75.79;99561.16;4911174;29;19923;-88
2022/04/02 03:24:35;;;;;;;;;;;;;;;1.44;74.50;99564.63;4912456;29;20478;-87
2022/04/02 03:27:00;;;;;;;;;;;;;;;1.65;73.36;99561.91;4914244;29;20366;-89
2022/04/02 03:29:27;;;;;;;;;;;;;;;1.44;72.70;99566.50;4912672;29;20008;-87
2022/04/02 03:31:52;;;;;;;;;;;;;;;1.35;74.29;99571.25;4913294;29;19919;-87
2022/04/02 03:34:17;;;;;;;;;;;;;;;1.25;73.22;99568.97;4913073;29;19967;-87
2022/04/02 03:36:42;;;;;;;;;;;;;;;1.00;73.59;99567.75;4913681;29;20324;-89
2022/04/02 03:39:07;;;;;;;;;;;;;;;1.26;75.05;99563.41;4896160;29;19923;-87
2022/04/02 03:41:33;;;;;;;;;;;;;;;0.82;74.10;99576.41;4912988;29;19925;-88
2022/04/02 03:44:05;;;;;;;;;;;;;;;0.72;75.10;99571.44;5042468;28;20463;-86
2022/04/02 03:49:14;;;;;;;;;;;;;;;0.71;74.77;99571.66;5061899;28;19927;-86
2022/04/02 03:51:40;;;;;;;;;;;;;;;0.71;74.72;99574.34;5048851;28;19924;-86
2022/04/02 03:54:05;;;;;;;;;;;;;;;0.73;75.15;99578.47;5041225;28;20428;-86
2022/04/02 03:56:30;;;;;;;;;;;;;;;0.75;74.70;99580.94;5043113;28;20316;-85
2022/04/02 03:58:56;;;;;;;;;;;;;;;0.62;74.96;99584.44;5040606;28;19952;-86
2022/04/02 04:01:22;;;;;;;;;;;;;;;0.59;74.43;99593.69;5042002;28;19928;-86
2022/04/02 04:03:47;;;;;;;;;;;;;;;0.48;75.01;99587.09;5041478;28;19924;-86
2022/04/02 04:06:12;;;;;;;;;;;;;;;0.54;75.24;99591.66;5041630;28;20373;-88
2022/04/02 04:08:37;;;;;;;;;;;;;;;0.63;74.50;99584.22;5042975;28;20289;-86
2022/04/02 04:11:02;;;;;;;;;;;;;;;0.76;75.03;99588.78;5040088;28;20392;-86
2022/04/02 04:13:28;;;;;;;;;;;;;;;0.80;73.64;99595.41;5040932;28;19924;-87
2022/04/02 04:15:53;;;;;;;;;;;;;;;0.91;73.41;99602.03;5040349;28;19929;-87
2022/04/02 04:18:18;;;;;;;;;;;;;;;0.93;73.64;99593.78;5041992;28;19964;-86
2022/04/02 04:20:43;;;;;;;;;;;;;;;0.91;72.24;99598.53;5040766;28;19925;-87
2022/04/02 04:23:08;;;;;;;;;;;;;;;0.95;73.90;99594.41;5041445;28;20525;-86
2022/04/02 04:25:33;;;;;;;;;;;;;;;1.19;73.46;99607.41;5041997;28;20008;-87
2022/04/02 04:28:01;;;;;;;;;;;;;;;1.09;73.53;99603.28;5040641;28;19917;-86
2022/04/02 04:30:26;;;;;;;;;;;;;;;1.22;72.81;99613.19;5041605;28;20311;-86
2022/04/02 04:32:51;;;;;;;;;;;;;;;1.15;72.59;99617.75;5040237;28;19921;-87
2022/04/02 04:35:17;;;;;;;;;;;;;;;1.04;72.62;99617.31;5041767;28;19921;-87
2022/04/02 04:37:42;;;;;;;;;;;;;;;0.74;72.58;99617.69;5040511;28;19987;-87
2022/04/02 04:40:08;;;;;;;;;;;;;;;0.79;72.79;99620.59;5041703;28;20315;-86
2022/04/02 04:42:33;;;;;;;;;;;;;;;1.00;72.85;99621.44;5048380;28;19921;-87
2022/04/02 04:44:58;;;;;;;;;;;;;;;0.88;72.11;99629.28;5060413;28;19916;-87
2022/04/02 04:47:23;;;;;;;;;;;;;;;0.80;72.36;99626.78;5051307;28;19963;-87
2022/04/02 04:49:48;;;;;;;;;;;;;;;0.82;72.25;99630.09;5039665;28;19920;-87
2022/04/02 04:52:14;;;;;;;;;;;;;;;0.71;72.06;99649.50;5041660;28;19991;-87
2022/04/02 04:54:39;;;;;;;;;;;;;;;0.65;72.98;99640.38;5031026;28;19956;-87
2022/04/02 04:57:04;;;;;;;;;;;;;;;0.57;72.53;99649.47;5027872;28;19967;-87
2022/04/02 04:59:29;;;;;;;;;;;;;;;0.60;72.71;99648.19;5027105;28;19921;-87
2022/04/02 05:01:54;;;;;;;;;;;;;;;0.67;73.12;99639.13;5037682;28;20272;-86
2022/04/02 05:04:19;;;;;;;;;;;;;;;0.67;73.82;99651.75;5027847;28;19918;-88
2022/04/02 05:06:45;;;;;;;;;;;;;;;0.56;72.69;99642.41;5026435;28;19925;-87
2022/04/02 05:09:10;;;;;;;;;;;;;;;0.51;73.25;99648.38;5027584;28;19952;-86
2022/04/02 05:11:35;;;;;;;;;;;;;;;0.62;73.39;99656.88;5026018;28;19962;-88
2022/04/02 05:14:01;;;;;;;;;;;;;;;0.68;72.63;99646.19;5026832;28;19921;-88
2022/04/02 05:16:26;;;;;;;;;;;;;;;0.51;73.01;99656.44;5025384;28;20034;-88
2022/04/02 05:18:52;;;;;;;;;;;;;;;0.64;71.89;99660.19;5027701;28;19921;-89
2022/04/02 05:21:17;;;;;;;;;;;;;;;0.52;72.65;99660.78;5037723;28;19936;-88
2022/04/02 05:23:43;;;;;;;;;;;;;;;0.68;73.06;99659.59;5047091;28;19946;-88
2022/04/02 05:26:08;;;;;;;;;;;;;;;0.85;72.50;99655.72;5047365;28;19927;-88
2022/04/02 05:28:33;;;;;;;;;;;;;;;0.75;72.24;99667.69;5078465;28;20474;-87
2022/04/02 05:30:59;;;;;;;;;;;;;;;0.56;72.56;99672.78;5038707;28;20038;-87
2022/04/02 05:33:24;;;;;;;;;;;;;;;0.65;72.83;99673.41;5043677;28;19925;-87
2022/04/02 05:35:49;;;;;;;;;;;;;;;0.56;72.33;99680.81;5046750;28;19932;-87
2022/04/02 05:38:15;;;;;;;;;;;;;;;0.46;72.61;99685.72;5045589;28;19975;-87
2022/04/02 05:40:40;;;;;;;;;;;;;;;0.31;72.61;99681.31;5039745;28;19932;-88
2022/04/02 05:43:05;;;;;;;;;;;;;;;0.41;72.70;99688.16;5038738;28;19921;-89
2022/04/02 05:45:31;;;;;;;;;;;;;;;0.33;72.24;99690.00;5046578;28;20439;-88
2022/04/02 05:47:57;;;;;;;;;;;;;;;0.55;73.26;99692.56;5061907;28;20593;-88
2022/04/02 05:50:24;;;;;;;;;;;;;;;0.50;71.74;99694.19;5061881;28;20019;-89
2022/04/02 05:52:49;;;;;;;;;;;;;;;0.48;72.74;99698.94;5047458;28;20015;-87
2022/04/02 05:55:15;;;;;;;;;;;;;;;0.50;72.28;99702.25;5045248;28;19988;-88
2022/04/02 05:57:41;;;;;;;;;;;;;;;0.70;72.48;99699.66;5046692;28;20619;-87
2022/04/02 06:00:10;;;;;;;;;;;;;;;0.81;71.11;99701.75;5045705;28;19923;-88
2022/04/02 06:02:36;;;;;;;;;;;;;;;0.86;71.24;99705.69;5045705;28;19920;-88
2022/04/02 06:05:01;;;;;;;;;;;;;;;0.45;71.68;99710.88;5046534;28;19920;-87
2022/04/02 06:07:26;;;;;;;;;;;;;;;0.52;73.09;99716.28;5044866;28;20375;-89
2022/04/02 06:09:52;;;;;;;;;;;;;;;0.84;72.15;99718.47;5046756;28;19921;-88
2022/04/02 06:12:17;;;;;;;;;;;;;;;0.79;72.38;99714.53;5045098;28;20288;-88
2022/04/02 06:14:42;;;;;;;;;;;;;;;0.76;73.02;99727.53;5046478;28;19970;-87
2022/04/02 06:17:07;;;;;;;;;;;;;;;0.60;71.43;99726.84;5044664;28;19921;-89
2022/04/02 06:19:32;;;;;;;;;;;;;;;0.76;72.13;99733.75;5044893;28;19920;-89
2022/04/02 06:21:58;;;;;;;;;;;;;;;0.75;71.13;99729.41;5045758;28;19940;-89
2022/04/02 06:24:23;;;;;;;;;;;;;;;0.58;72.60;99732.44;5044767;28;20012;-88
2022/04/02 06:26:48;;;;;;;;;;;;;;;0.72;72.85;99728.97;5046639;28;19960;-89
2022/04/02 06:29:13;;;;;;;;;;;;;;;0.83;71.49;99741.81;5045087;28;19923;-89
2022/04/02 06:31:39;;;;;;;;;;;;;;;0.66;72.02;99742.16;5049070;28;19928;-88
2022/04/02 06:34:04;;;;;;;;;;;;;;;0.89;72.05;99748.25;5064238;28;19928;-88
2022/04/02 06:36:29;;;;;;;;;;;;;;;0.93;72.34;99749.50;5065201;28;19971;-88
2022/04/02 06:38:55;;;;;;;;;;;;;;;1.03;71.48;99741.91;5064275;28;19920;-88
2022/04/02 06:41:20;;;;;;;;;;;;;;;0.97;70.91;99753.44;5053162;28;19925;-88
2022/04/02 06:43:45;;;;;;;;;;;;;;;0.76;71.93;99749.84;5043770;28;20350;-89
2022/04/02 06:46:22;;;;;;;;;;;;;;;0.93;71.82;99760.25;5044265;28;19923;-88
2022/04/02 06:48:47;;;;;;;;;;;;;;;1.01;71.31;99757.38;5065869;28;20369;-88
2022/04/02 06:51:13;;;;;;;;;;;;;;;0.85;71.78;99763.09;5053427;28;19924;-87
2022/04/02 06:53:39;;;;;;;;;;;;;;;1.07;71.24;99765.66;5046045;28;19916;-89
2022/04/02 06:56:04;;;;;;;;;;;;;;;0.82;70.59;99769.69;5044578;28;19943;-89
2022/04/02 06:58:34;;;;;;;;;;;;;;;0.73;72.01;99768.22;5045600;28;19925;-87
2022/04/02 07:00:59;;;;;;;;;;;;;;;0.92;72.12;99767.47;5044645;28;20011;-88
2022/04/02 07:03:24;;;;;;;;;;;;;;;0.78;72.32;99774.63;5062445;28;20018;-88
2022/04/02 07:05:49;;;;;;;;;;;;;;;0.67;71.76;99777.91;5066094;28;19920;-88
2022/04/02 07:08:14;;;;;;;;;;;;;;;0.88;72.55;99784.16;5062633;28;20250;-88
2022/04/02 07:10:40;;;;;;;;;;;;;;;0.71;72.11;99776.47;5059500;28;19968;-87
2022/04/02 07:13:05;;;;;;;;;;;;;;;0.79;71.34;99778.97;5044231;28;19948;-88
2022/04/02 07:15:30;;;;;;;;;;;;;;;0.75;71.87;99791.16;5044177;28;19917;-87
2022/04/02 07:17:55;;;;;;;;;;;;;;;0.80;72.01;99794.06;5044080;28;19920;-88
2022/04/02 07:20:24;;;;;;;;;;;;;;;0.75;72.49;99793.00;5044357;28;20593;-88
2022/04/02 07:22:49;;;;;;;;;;;;;;;0.87;71.59;99787.88;5045554;28;19985;-88
2022/04/02 07:25:16;;;;;;;;;;;;;;;0.76;71.27;99797.31;5043843;28;20363;-87
2022/04/02 07:27:41;;;;;;;;;;;;;;;1.01;71.81;99789.59;5045590;28;19917;-88
2022/04/02 07:30:07;;;;;;;;;;;;;;;1.30;70.70;99785.97;5040522;28;20396;-89
2022/04/02 07:32:32;;;;;;;;;;;;;;;1.13;69.98;99802.44;5036530;28;19928;-88
2022/04/02 07:34:58;;;;;;;;;;;;;;;1.07;70.86;99797.88;5043212;28;19916;-88
2022/04/02 07:37:41;;;;;;;;;;;;;;;1.26;71.01;99804.34;5044766;28;20004;-89
2022/04/02 07:40:08;;;;;;;;;;;;;;;1.14;71.10;99809.50;5043059;28;20334;-89
2022/04/02 07:42:37;;;;;;;;;;;;;;;1.20;71.40;99805.97;5043514;28;20413;-87
2022/04/02 07:45:04;;;;;;;;;;;;;;;0.93;71.07;99822.84;5044730;28;20004;-88
2022/04/02 07:47:31;;;;;;;;;;;;;;;1.06;71.35;99817.72;5053684;28;20442;-87
2022/04/02 07:49:59;;;;;;;;;;;;;;;1.07;70.75;99822.03;5041920;28;20357;-87
2022/04/02 07:52:24;;;;;;;;;;;;;;;1.14;70.97;99825.59;5043913;28;19963;-88
2022/04/02 07:54:54;;;;;;;;;;;;;;;1.04;70.75;99834.84;5044301;28;19952;-87
2022/04/02 07:57:19;;;;;;;;;;;;;;;1.03;71.73;99829.69;5044213;28;19920;-88
2022/04/02 07:59:50;;;;;;;;;;;;;;;1.28;70.62;99837.22;5042734;28;19924;-89
2022/04/02 08:05:00;;;;;;;;;;;;;;;1.45;69.87;99840.38;5043224;28;19967;-87
2022/04/02 08:07:27;;;;;;;;;;;;;;;1.11;70.22;99840.25;5044146;28;19921;-88
2022/04/02 08:09:53;;;;;;;;;;;;;;;1.21;71.21;99847.09;5044011;28;20015;-88
2022/04/02 08:12:18;;;;;;;;;;;;;;;1.22;70.94;99844.19;5043116;28;19967;-87
2022/04/02 08:14:58;;;;;;;;;;;;;;;1.33;71.39;99839.28;5044636;28;19971;-87
2022/04/02 08:17:23;;;;;;;;;;;;;;;1.43;71.09;99839.72;5043001;28;19944;-87
2022/04/02 08:19:49;;;;;;;;;;;;;;;1.49;70.89;99843.47;5045100;28;19955;-87
2022/04/02 08:22:16;;;;;;;;;;;;;;;1.54;71.70;99850.94;5042495;28;19931;-87
2022/04/02 08:24:42;;;;;;;;;;;;;;;1.60;71.22;99847.44;5044778;28;19917;-87
2022/04/02 08:27:11;;;;;;;;;;;;;;;1.66;70.18;99856.53;5042111;28;20337;-87
2022/04/02 08:29:36;;;;;;;;;;;;;;;1.57;70.33;99853.19;5045325;28;20138;-87
2022/04/02 08:32:07;;;;;;;;;;;;;;;1.56;69.95;99851.56;5047536;28;20594;-87
2022/04/02 08:34:35;;;;;;;;;;;;;;;1.61;70.91;99847.22;5047130;28;19917;-86
2022/04/02 08:37:06;;;;;;;;;;;;;;;1.71;70.16;99854.88;5048293;28;20031;-87
2022/04/02 08:39:36;;;;;;;;;;;;;;;1.97;69.58;99853.28;5046938;28;19917;-87
2022/04/02 08:42:01;;;;;;;;;;;;;;;1.71;69.29;99862.97;5047210;28;20375;-87
2022/04/02 08:44:35;;;;;;;;;;;;;;;1.89;70.11;99852.66;5048058;28;19920;-88
2022/04/02 08:47:01;;;;;;;;;;;;;;;1.88;67.84;99867.97;5054004;28;19920;-87
2022/04/02 08:49:26;;;;;;;;;;;;;;;1.66;68.93;99854.69;5057756;28;19936;-88
2022/04/02 08:52:09;;;;;;;;;;;;;;;1.85;69.69;99861.13;5044610;28;19928;-87
2022/04/02 08:54:38;;;;;;;;;;;;;;;1.88;69.57;99867.97;5043993;28;20928;-86
2022/04/02 08:57:15;;;;;;;;;;;;;;;1.93;69.33;99860.09;5045304;28;20385;-87
2022/04/02 08:59:41;;;;;;;;;;;;;;;1.87;70.01;99860.94;5047289;28;19923;-88
2022/04/02 09:02:36;;;;;;;;;;;;;;;1.95;70.21;99876.03;5046336;28;19929;-88
2022/04/02 09:05:20;;;;;;;;;;;;;;;1.79;69.78;99882.63;5046396;28;20216;-88
2022/04/02 09:08:04;;;;;;;;;;;;;;;1.68;69.88;99886.75;5047349;28;20167;-88
2022/04/02 09:10:39;;;;;;;;;;;;;;;1.98;68.07;99897.13;5047080;28;19925;-87
2022/04/02 09:13:22;;;;;;;;;;;;;;;1.90;67.90;99892.78;5046342;28;19921;-87
2022/04/02 09:16:14;;;;;;;;;;;;;;;1.92;68.00;99901.47;5047658;28;20003;-87
2022/04/02 09:18:45;;;;;;;;;;;;;;;2.21;68.20;99888.69;5042436;28;19975;-89
2022/04/02 09:21:17;;;;;;;;;;;;;;;2.11;68.38;99893.66;5045819;28;19920;-87
2022/04/02 09:23:45;;;;;;;;;;;;;;;2.03;67.04;99896.53;5051391;28;20394;-88
2022/04/02 09:26:39;;;;;;;;;;;;;;;2.23;67.11;99896.56;5049803;28;20015;-88
2022/04/02 09:29:14;;;;;;;;;;;;;;;2.26;66.77;99911.47;5046696;28;19975;-88
2022/04/02 09:31:58;;;;;;;;;;;;;;;2.19;67.08;99901.53;5044876;28;19925;-88
2022/04/02 09:34:42;;;;;;;;;;;;;;;2.16;65.66;99907.31;5046178;28;19994;-88
2022/04/02 09:37:08;;;;;;;;;;;;;;;2.18;67.16;99899.84;5047573;28;19964;-88
2022/04/02 09:39:36;;;;;;;;;;;;;;;2.42;67.39;99900.28;5046178;28;19960;-88
2022/04/02 09:42:33;;;;;;;;;;;;;;;2.45;66.15;99901.72;5046160;28;20684;-87
2022/04/02 09:45:03;;;;;;;;;;;;;;;2.59;66.92;99912.47;5033766;28;19957;-88
2022/04/02 09:47:47;;;;;;;;;;;;;;;2.58;66.36;99914.38;5045341;28;20306;-88
2022/04/02 09:50:17;;;;;;;;;;;;;;;2.72;66.42;99914.34;5046623;28;20303;-88
2022/04/02 09:52:45;;;;;;;;;;;;;;;2.75;67.57;99911.22;5045686;28;19978;-88
2022/04/02 09:55:14;;;;;;;;;;;;;;;2.73;65.93;99910.59;5046502;28;19925;-88
2022/04/02 09:57:58;;;;;;;;;;;;;;;2.88;65.68;99913.91;5046279;28;20083;-89
2022/04/02 10:00:29;;;;;;;;;;;;;;;3.08;65.87;99923.81;5045263;28;20508;-88
2022/04/02 10:03:04;;;;;;;;;;;;;;;2.89;65.06;99920.94;5046712;28;19947;-88
2022/04/02 10:05:41;;;;;;;;;;;;;;;2.78;64.11;99922.44;5043918;28;19917;-87
2022/04/02 10:08:12;;;;;;;;;;;;;;;2.64;63.67;99928.84;5046597;28;19921;-88
2022/04/02 10:10:38;;;;;;;;;;;;;;;2.64;64.50;99921.63;5045859;28;20404;-88
2022/04/02 10:13:05;;;;;;;;;;;;;;;2.67;64.27;99929.25;5045650;28;19917;-88
2022/04/02 10:15:31;;;;;;;;;;;;;;;2.53;67.02;99931.13;5045799;28;19920;-89
2022/04/02 10:18:01;;;;;;;;;;;;;;;2.85;65.03;99935.88;5045493;28;20152;-88
2022/04/02 10:20:31;;;;;;;;;;;;;;;2.62;64.34;99926.38;5045778;28;20421;-88
2022/04/02 10:23:14;;;;;;;;;;;;;;;2.88;64.21;99935.47;5045497;28;19974;-88
2022/04/02 10:25:57;;;;;;;;;;;;;;;2.68;65.24;99927.41;5046057;28;19985;-88
2022/04/02 10:28:27;;;;;;;;;;;;;;;2.63;64.35;99935.25;5045647;28;19923;-88
2022/04/02 10:30:55;;;;;;;;;;;;;;;2.54;64.07;99927.38;5044929;28;19956;-88
2022/04/02 10:33:29;;;;;;;;;;;;;;;2.38;63.79;99931.31;5044458;28;19925;-88
2022/04/02 10:35:56;;;;;;;;;;;;;;;2.10;64.50;99932.31;5045548;28;19978;-89
2022/04/02 10:38:32;;;;;;;;;;;;;;;2.21;63.97;99937.13;5045378;28;19917;-88
2022/04/02 10:40:58;;;;;;;;;;;;;;;2.01;64.95;99947.00;5044526;28;20380;-89
2022/04/02 10:43:25;;;;;;;;;;;;;;;2.29;64.95;99943.34;5043378;28;19940;-88
2022/04/02 10:45:50;;;;;;;;;;;;;;;2.28;65.46;99939.00;5045281;28;19921;-88
2022/04/02 10:48:19;;;;;;;;;;;;;;;2.35;65.10;99952.44;5044769;28;19975;-89
2022/04/02 10:50:44;;;;;;;;;;;;;;;2.25;65.46;99947.47;5045614;28;19942;-89
2022/04/02 10:53:11;;;;;;;;;;;;;;;2.29;64.14;99946.03;5044054;28;19921;-88
2022/04/02 10:55:45;;;;;;;;;;;;;;;2.62;64.78;99945.22;5045514;28;19975;-88
2022/04/02 10:58:11;;;;;;;;;;;;;;;2.61;63.65;99940.84;5044839;28;19921;-88
2022/04/02 11:00:38;;;;;;;;;;;;;;;2.65;64.27;99938.56;5044489;28;19925;-87
2022/04/02 11:03:04;;;;;;;;;;;;;;;2.44;62.89;99946.66;5044583;28;19964;-88
2022/04/02 11:05:37;;;;;;;;;;;;;;;2.55;64.53;99949.75;5043968;28;19960;-88
2022/04/02 11:08:05;;;;;;;;;;;;;;;2.64;64.29;99943.16;5045132;28;19921;-87
2022/04/02 11:10:30;;;;;;;;;;;;;;;2.48;65.26;99948.94;5044260;28;20399;-88
2022/04/02 11:13:00;;;;;;;;;;;;;;;2.39;65.48;99951.00;5044591;28;19960;-88
2022/04/02 11:15:25;;;;;;;;;;;;;;;2.46;65.72;99951.84;5044648;28;19967;-88
2022/04/02 11:17:52;;;;;;;;;;;;;;;2.86;66.18;99947.47;5044626;28;19921;-87
2022/04/02 11:20:22;;;;;;;;;;;;;;;2.77;65.50;99950.38;5044824;28;19924;-89
2022/04/02 11:22:50;;;;;;;;;;;;;;;2.71;65.91;99950.38;5043727;28;19925;-87
2022/04/02 11:25:21;;;;;;;;;;;;;;;2.67;66.71;99956.19;5045126;28;19920;-87
2022/04/02 11:27:49;;;;;;;;;;;;;;;2.95;65.84;99959.69;5043760;28;19924;-87
2022/04/02 11:30:15;;;;;;;;;;;;;;;2.70;65.43;99959.50;5044476;28;19921;-88
2022/04/02 11:32:42;;;;;;;;;;;;;;;2.53;65.81;99959.91;5044208;28;19920;-86
2022/04/02 11:35:09;;;;;;;;;;;;;;;2.47;67.73;99971.50;5044119;28;20384;-87
2022/04/02 11:37:40;;;;;;;;;;;;;;;2.52;66.54;99967.16;5044785;28;20396;-85
2022/04/02 11:40:08;;;;;;;;;;;;;;;2.38;68.27;99974.38;5043467;28;19927;-87
2022/04/02 11:42:34;;;;;;;;;;;;;;;2.43;67.51;99971.91;5044579;28;20311;-86
2022/04/02 11:45:02;;;;;;;;;;;;;;;2.44;68.02;99970.88;5043989;28;19928;-86
2022/04/02 11:47:28;;;;;;;;;;;;;;;2.57;67.53;99966.53;5055238;28;19959;-86
2022/04/02 11:49:55;;;;;;;;;;;;;;;2.49;67.71;99969.44;5063943;28;20015;-86
2022/04/02 11:52:20;;;;;;;;;;;;;;;2.54;68.38;99986.63;5044104;28;20379;-86
2022/04/02 11:54:48;;;;;;;;;;;;;;;2.68;69.10;99982.06;5043127;28;19917;-86
2022/04/02 11:57:14;;;;;;;;;;;;;;;2.11;71.10;99979.72;5043785;28;19960;-86
2022/04/02 11:59:52;;;;;;;;;;;;;;;2.15;72.30;99990.91;5043629;28;20342;-87
2022/04/02 12:02:34;;;;;;;;;;;;;;;2.31;73.32;99989.69;5043164;28;20332;-88
2022/04/02 12:05:00;;;;;;;;;;;;;;;2.61;72.25;99996.56;5046635;28;20293;-88
2022/04/02 12:07:26;;;;;;;;;;;;;;;2.71;71.45;99990.75;5048268;28;19921;-88
2022/04/02 12:09:52;;;;;;;;;;;;;;;2.60;71.97;99987.69;5048273;28;19917;-88
2022/04/02 12:12:22;;;;;;;;;;;;;;;2.35;71.85;99996.34;5046402;28;20380;-88
2022/04/02 12:14:47;;;;;;;;;;;;;;;2.33;71.58;99995.72;5047738;28;19921;-87
2022/04/02 12:17:13;;;;;;;;;;;;;;;2.37;72.25;99983.50;5048226;28;19921;-87
2022/04/02 12:19:40;;;;;;;;;;;;;;;2.52;71.95;99990.56;5047108;28;19940;-87
2022/04/02 12:22:18;;;;;;;;;;;;;;;2.57;71.61;99985.38;5047809;28;20135;-87
2022/04/02 12:24:47;;;;;;;;;;;;;;;2.61;71.29;99989.31;5047907;28;19995;-89
2022/04/02 12:27:15;;;;;;;;;;;;;;;2.53;70.41;99981.44;5047357;28;19916;-87
2022/04/02 12:29:44;;;;;;;;;;;;;;;2.71;71.03;99983.53;5046917;28;19917;-87
2022/04/02 12:32:09;;;;;;;;;;;;;;;2.58;70.38;99989.75;5054666;28;19969;-88
2022/04/02 12:34:35;;;;;;;;;;;;;;;2.68;70.51;99983.94;5068261;28;19933;-88
2022/04/02 12:37:01;;;;;;;;;;;;;;;2.91;70.00;99988.91;5067072;28;20434;-88
2022/04/02 12:39:26;;;;;;;;;;;;;;;3.15;69.33;99988.47;5067072;28;19930;-88
2022/04/02 12:41:51;;;;;;;;;;;;;;;3.32;67.83;99994.22;5051176;28;19921;-88
2022/04/02 12:44:20;;;;;;;;;;;;;;;3.08;68.15;99988.47;5047150;28;19920;-87
2022/04/02 12:46:46;;;;;;;;;;;;;;;3.40;67.32;99992.38;5047101;28;20445;-87
2022/04/02 12:49:27;;;;;;;;;;;;;;;3.27;66.14;99985.97;5047213;28;19920;-87
2022/04/02 12:52:09;;;;;;;;;;;;;;;2.98;65.67;99982.69;5047411;28;19920;-86
2022/04/02 12:54:34;;;;;;;;;;;;;;;3.11;66.77;99998.81;5047172;28;19921;-87
2022/04/02 12:57:13;;;;;;;;;;;;;;;3.32;66.27;99998.78;5045269;28;19921;-86
2022/04/02 12:59:42;;;;;;;;;;;;;;;3.45;65.49;99993.38;5047127;28;19939;-86
2022/04/02 13:02:09;;;;;;;;;;;;;;;3.64;64.97;99995.41;5046057;28;19963;-87
2022/04/02 13:04:35;;;;;;;;;;;;;;;3.67;64.73;99995.78;5047456;28;20010;-85
2022/04/02 13:07:03;;;;;;;;;;;;;;;3.46;64.06;99994.19;5046829;28;20274;-86
2022/04/02 13:09:35;;;;;;;;;;;;;;;3.44;64.48;99996.31;5046979;28;19943;-85
2022/04/02 13:12:01;;;;;;;;;;;;;;;3.47;65.39;99998.56;5046467;28;20369;-86